Indian Gap, Texas
Current Conditions -  °F | °C
As of 2:15 PM on Monday 24 Nov 2014 (Local Time) from KMNZ Reporting Station
Clear Clear  
Wind Chill: 58°   Ceiling: Unl
Heat Index: 58°   Visibility: 10mi
Dew Point: 20°   Wind: 8mph
Humidity: 23%   Direction: 260°W
Pressure: 30.07"   Gusts: NA
Location:  31.6401°N, 98.1198°W
Report Text: KMNZ 242015Z AUTO 26007KT 10SM CLR 15/M06 A3007 RMK AO2 T01461065
Loading
Personal Weather Stations






























Interactive Weather Map New forecast layout! Learn more

10-Day Weather Forecast

Advertisements
Track Severe Weather on mobile